createdAt,value
2024-03-09T00:00:59.026Z,27.24
2024-03-09T00:01:59.098Z,27.76
2024-03-09T00:02:59.097Z,27.65
2024-03-09T00:03:59.109Z,27.77
2024-03-09T00:04:59.360Z,27.90
2024-03-09T00:05:59.179Z,27.45
2024-03-09T00:06:59.252Z,27.74
2024-03-09T00:07:59.505Z,27.51
2024-03-09T00:08:59.275Z,27.52
2024-03-09T00:09:59.278Z,27.72
2024-03-09T00:10:59.415Z,27.71
2024-03-09T00:11:59.374Z,27.63
2024-03-09T00:12:59.354Z,27.42
2024-03-09T00:13:59.428Z,27.64
2024-03-09T00:14:59.418Z,27.78
2024-03-09T00:15:59.453Z,27.77
2024-03-09T00:16:59.573Z,27.85
2024-03-09T00:17:59.573Z,27.90
2024-03-09T00:18:59.573Z,27.85
2024-03-09T00:19:59.728Z,27.77
2024-03-09T00:20:59.618Z,27.81
2024-03-09T00:21:59.678Z,27.60
2024-03-09T00:22:59.842Z,27.61
2024-03-09T00:23:59.664Z,27.43
2024-03-09T00:24:59.722Z,27.58
2024-03-09T00:25:59.815Z,27.65
2024-03-09T00:26:59.822Z,27.84
2024-03-09T00:27:59.825Z,27.78
2024-03-09T00:28:59.863Z,27.77
2024-03-09T00:29:59.872Z,27.71
2024-03-09T00:30:59.924Z,27.71
2024-03-09T00:31:59.957Z,27.87
2024-03-09T00:33:00.015Z,27.89
2024-03-09T00:33:59.974Z,27.60
2024-03-09T00:35:00.060Z,27.24
2024-03-09T00:36:00.060Z,27.73
2024-03-09T00:37:00.144Z,27.54
2024-03-09T00:38:00.562Z,27.37
2024-03-09T00:39:00.165Z,27.76
2024-03-09T00:40:00.261Z,27.70
2024-03-09T00:41:00.288Z,27.35
2024-03-09T00:42:00.407Z,27.36
2024-03-09T00:43:00.498Z,27.77
2024-03-09T00:44:00.452Z,27.58
2024-03-09T00:45:00.475Z,27.54
2024-03-09T00:46:00.476Z,27.81
2024-03-09T00:47:00.563Z,27.86
2024-03-09T00:48:00.653Z,27.52
2024-03-09T00:49:00.630Z,27.82
2024-03-09T00:50:00.723Z,27.99
2024-03-09T00:51:00.701Z,27.66
2024-03-09T00:52:00.796Z,27.52
2024-03-09T00:53:00.912Z,27.50
2024-03-09T00:54:00.884Z,27.71
2024-03-09T00:55:00.941Z,27.94
2024-03-09T00:56:01.073Z,27.98
2024-03-09T00:57:01.012Z,27.85
2024-03-09T00:58:01.056Z,28.03
2024-03-09T00:59:03.042Z,28.07
2024-03-09T01:00:01.189Z,27.66
2024-03-09T01:01:01.229Z,27.76
2024-03-09T01:02:01.349Z,27.99
2024-03-09T01:03:01.352Z,28.02
2024-03-09T01:04:01.417Z,28.02
2024-03-09T01:05:01.530Z,27.98
2024-03-09T01:06:01.529Z,27.71
2024-03-09T01:07:01.581Z,27.92
2024-03-09T01:08:01.631Z,27.60
2024-03-09T01:09:01.768Z,27.86
2024-03-09T01:10:01.707Z,28.10
2024-03-09T01:11:01.915Z,28.15
2024-03-09T01:12:01.930Z,28.02
2024-03-09T01:13:01.836Z,28.03
2024-03-09T01:14:02.159Z,27.71
2024-03-09T01:15:01.942Z,27.57
2024-03-09T01:16:02.013Z,27.56
2024-03-09T01:17:02.122Z,27.69
2024-03-09T01:18:02.148Z,28.00
2024-03-09T01:19:02.201Z,28.12
2024-03-09T01:20:02.384Z,27.88
2024-03-09T01:21:02.265Z,27.83
2024-03-09T01:22:02.303Z,28.02
2024-03-09T01:23:02.440Z,28.11
2024-03-09T01:24:02.411Z,28.05
2024-03-09T01:25:02.493Z,27.82
2024-03-09T01:26:02.601Z,28.01
2024-03-09T01:27:02.571Z,27.87
2024-03-09T01:28:02.593Z,27.59
2024-03-09T01:29:02.854Z,27.46
2024-03-09T01:30:03.057Z,27.54
2024-03-09T01:31:02.793Z,27.58
2024-03-09T01:32:02.906Z,27.63
2024-03-09T01:33:02.854Z,27.73
2024-03-09T01:34:02.883Z,27.41
2024-03-09T01:35:03.053Z,27.70
2024-03-09T01:36:02.964Z,27.73
2024-03-09T01:37:03.027Z,27.58
2024-03-09T01:38:03.087Z,27.58
2024-03-09T01:39:03.132Z,27.56
2024-03-09T01:40:03.207Z,27.55
2024-03-09T01:41:03.315Z,27.69
2024-03-09T01:42:03.305Z,27.76
2024-03-09T01:43:03.312Z,27.89
2024-03-09T01:44:03.401Z,27.84
2024-03-09T01:45:03.434Z,27.65
2024-03-09T01:46:03.476Z,27.74
2024-03-09T01:47:03.645Z,27.46
2024-03-09T01:48:03.640Z,27.40
2024-03-09T01:49:03.619Z,27.44
2024-03-09T01:50:03.816Z,27.32
2024-03-09T01:51:03.746Z,27.31
2024-03-09T01:52:03.790Z,27.61
2024-03-09T01:53:03.856Z,27.60
2024-03-09T01:54:03.900Z,27.65
2024-03-09T01:55:03.955Z,27.79
2024-03-09T01:56:04.087Z,27.77
2024-03-09T01:57:04.097Z,27.33
2024-03-09T01:58:04.128Z,27.33
2024-03-09T01:59:04.239Z,27.42
2024-03-09T02:00:04.353Z,27.42
2024-03-09T02:01:04.349Z,27.48
2024-03-09T02:02:04.429Z,27.64
2024-03-09T02:03:04.441Z,27.36
2024-03-09T02:04:04.526Z,27.58
2024-03-09T02:05:04.890Z,27.59
2024-03-09T02:06:04.616Z,27.69
2024-03-09T02:07:04.695Z,27.29
2024-03-09T02:08:04.829Z,27.46
2024-03-09T02:09:04.813Z,27.53
2024-03-09T02:10:04.922Z,27.42
2024-03-09T02:11:05.050Z,27.73
2024-03-09T02:12:05.044Z,27.67
2024-03-09T02:13:05.094Z,27.24
2024-03-09T02:14:05.128Z,27.24
2024-03-09T02:15:05.210Z,27.18
2024-03-09T02:16:05.277Z,27.20
2024-03-09T02:17:05.396Z,27.12
2024-03-09T02:18:05.415Z,27.08
2024-03-09T02:19:05.448Z,27.20
2024-03-09T02:20:05.499Z,27.44
2024-03-09T02:21:05.551Z,27.30
2024-03-09T02:22:05.618Z,27.12
2024-03-09T02:23:05.761Z,27.47
2024-03-09T02:24:05.724Z,27.32
2024-03-09T02:25:05.775Z,27.13
2024-03-09T02:26:05.936Z,27.11
2024-03-09T02:27:05.922Z,27.09
2024-03-09T02:28:05.974Z,27.21
2024-03-09T02:29:06.114Z,27.06
2024-03-09T02:30:06.086Z,27.22
2024-03-09T02:31:06.163Z,27.31
2024-03-09T02:33:06.326Z,27.12
2024-03-09T02:34:06.366Z,27.14
2024-03-09T02:35:06.418Z,27.24
2024-03-09T02:36:06.425Z,27.16
2024-03-09T02:37:06.498Z,27.09
2024-03-09T02:38:06.589Z,27.09
2024-03-09T02:39:06.667Z,27.20
2024-03-09T02:40:06.694Z,27.04
2024-03-09T02:41:06.780Z,27.17
2024-03-09T02:42:06.805Z,27.25
2024-03-09T02:43:06.890Z,27.64
2024-03-09T02:44:06.958Z,27.60
2024-03-09T02:45:07.026Z,27.34
2024-03-09T02:46:07.108Z,27.40
2024-03-09T02:47:07.215Z,27.24
2024-03-09T02:48:07.210Z,27.27
2024-03-09T02:49:07.259Z,27.46
2024-03-09T02:50:07.502Z,27.20
2024-03-09T02:51:07.367Z,27.19
2024-03-09T02:52:07.427Z,27.58
2024-03-09T02:53:07.585Z,27.20
2024-03-09T02:54:07.419Z,27.19
2024-03-09T02:55:07.490Z,27.30
2024-03-09T02:56:07.517Z,27.24
2024-03-09T02:57:07.462Z,27.16
2024-03-09T02:58:07.415Z,27.10
2024-03-09T02:59:07.507Z,27.13
2024-03-09T03:00:07.456Z,27.17
2024-03-09T03:01:07.529Z,27.31
2024-03-09T03:02:07.560Z,27.12
2024-03-09T03:03:07.460Z,27.08
2024-03-09T03:04:07.429Z,27.07
2024-03-09T03:05:07.550Z,27.36
2024-03-09T03:06:07.453Z,27.27
2024-03-09T03:07:07.446Z,27.31
2024-03-09T03:08:07.556Z,27.11
2024-03-09T03:09:07.478Z,27.10
2024-03-09T03:10:07.489Z,27.29
2024-03-09T03:11:07.583Z,27.18
2024-03-09T03:12:07.471Z,27.30
2024-03-09T03:13:07.536Z,27.43
2024-03-09T03:14:07.620Z,27.13
2024-03-09T03:15:07.514Z,27.04
2024-03-09T03:16:07.473Z,27.15
2024-03-09T03:17:07.595Z,27.19
2024-03-09T03:18:07.479Z,27.04
2024-03-09T03:19:07.950Z,27.07
2024-03-09T03:20:07.537Z,27.11
2024-03-09T03:21:07.488Z,27.03
2024-03-09T03:22:07.516Z,27.00
2024-03-09T03:23:07.568Z,27.02
2024-03-09T03:24:07.467Z,27.03
2024-03-09T03:25:07.459Z,27.10
2024-03-09T03:26:10.442Z,27.06
2024-03-09T03:27:07.506Z,27.01
2024-03-09T03:28:07.568Z,27.03
2024-03-09T03:29:07.587Z,27.01
2024-03-09T03:30:07.479Z,27.03
2024-03-09T03:31:07.514Z,27.00
2024-03-09T03:32:07.528Z,26.98
2024-03-09T03:33:07.780Z,27.01
2024-03-09T03:34:07.526Z,27.01
2024-03-09T03:35:07.544Z,27.02
2024-03-09T03:36:07.535Z,26.94
2024-03-09T03:37:07.563Z,26.99
2024-03-09T03:38:07.938Z,26.99
2024-03-09T03:39:07.512Z,27.00
2024-03-09T03:40:07.512Z,27.05
2024-03-09T03:41:07.743Z,27.17
2024-03-09T03:42:07.539Z,27.16
2024-03-09T03:43:07.523Z,27.12
2024-03-09T03:44:07.603Z,26.99
2024-03-09T03:45:07.725Z,26.97
2024-03-09T03:46:07.672Z,27.03
2024-03-09T03:47:07.836Z,27.11
2024-03-09T03:48:07.897Z,27.02
2024-03-09T03:49:07.927Z,27.03
2024-03-09T03:50:07.980Z,27.09
2024-03-09T03:51:07.998Z,27.12
2024-03-09T03:52:08.075Z,27.11
2024-03-09T03:53:08.335Z,27.10
2024-03-09T03:54:08.224Z,27.06
2024-03-09T03:55:08.302Z,27.03
2024-03-09T03:56:08.428Z,27.04
2024-03-09T03:57:08.399Z,27.07
2024-03-09T03:58:08.530Z,27.07
2024-03-09T03:59:08.660Z,27.15
2024-03-09T04:00:08.618Z,27.12
2024-03-09T04:01:08.786Z,27.01
2024-03-09T04:02:08.902Z,27.00
2024-03-09T04:03:08.842Z,27.07
2024-03-09T04:04:08.886Z,27.03
2024-03-09T04:05:09.065Z,27.00
2024-03-09T04:06:09.049Z,27.02
2024-03-09T04:07:09.099Z,27.16
2024-03-09T04:08:09.225Z,27.17
2024-03-09T04:09:09.229Z,27.05
2024-03-09T04:10:09.306Z,27.09
2024-03-09T04:11:09.564Z,27.16
2024-03-09T04:12:09.459Z,27.14
2024-03-09T04:13:09.450Z,27.11
2024-03-09T04:14:09.557Z,27.06
2024-03-09T04:15:09.584Z,27.04
2024-03-09T04:16:09.621Z,26.98
2024-03-09T04:17:09.767Z,27.04
2024-03-09T04:18:09.788Z,27.09
2024-03-09T04:19:09.800Z,27.08
2024-03-09T04:20:09.952Z,27.06
2024-03-09T04:21:09.970Z,27.07
2024-03-09T04:22:09.950Z,27.03
2024-03-09T04:23:09.996Z,27.03
2024-03-09T04:24:10.025Z,27.07
2024-03-09T04:25:10.221Z,27.04
2024-03-09T04:26:10.176Z,27.09
2024-03-09T04:27:10.251Z,27.09
2024-03-09T04:28:10.216Z,27.03
2024-03-09T04:29:10.336Z,27.03
2024-03-09T04:30:10.374Z,27.01
2024-03-09T04:31:17.588Z,27.11
2024-03-09T04:32:17.669Z,27.19
2024-03-09T04:33:17.594Z,27.18
2024-03-09T04:34:17.603Z,27.10
2024-03-09T04:35:17.631Z,27.14
2024-03-09T04:36:17.718Z,27.10
2024-03-09T04:37:17.613Z,27.10
2024-03-09T04:38:17.896Z,27.18
2024-03-09T04:39:17.596Z,27.15
2024-03-09T04:40:17.655Z,27.04
2024-03-09T04:41:17.647Z,27.10
2024-03-09T04:42:17.619Z,27.09
2024-03-09T04:43:17.597Z,27.07
2024-03-09T04:44:22.410Z,27.07
2024-03-09T04:45:18.605Z,27.02
2024-03-09T04:46:17.615Z,27.01
2024-03-09T04:47:17.607Z,27.05
2024-03-09T04:48:17.638Z,27.07
2024-03-09T04:49:17.638Z,27.08
2024-03-09T04:50:17.660Z,27.19
2024-03-09T04:51:17.624Z,27.04
2024-03-09T04:52:17.645Z,27.10
2024-03-09T04:53:18.270Z,27.06
2024-03-09T04:54:17.653Z,27.09
2024-03-09T04:55:17.613Z,27.16
2024-03-09T04:56:17.765Z,27.17
2024-03-09T04:57:17.724Z,27.14
2024-03-09T04:58:17.761Z,27.10
2024-03-09T04:59:17.902Z,27.10
2024-03-09T05:00:17.890Z,27.05
2024-03-09T05:01:17.967Z,27.09
2024-03-09T05:02:18.023Z,27.16
2024-03-09T05:03:18.052Z,27.09
2024-03-09T05:04:18.111Z,27.08
2024-03-09T05:05:18.145Z,27.04
2024-03-09T05:06:18.241Z,27.08
2024-03-09T05:07:18.260Z,27.11
2024-03-09T05:08:18.359Z,26.99
2024-03-09T05:09:18.413Z,27.00
2024-03-09T05:10:18.456Z,27.05
2024-03-09T05:11:18.523Z,27.07
2024-03-09T05:12:18.518Z,27.06
2024-03-09T05:13:18.564Z,27.04
2024-03-09T05:14:18.648Z,27.02
2024-03-09T05:15:18.697Z,27.04
2024-03-09T05:16:18.750Z,27.08
2024-03-09T05:17:18.828Z,27.09
2024-03-09T05:18:18.944Z,27.07
2024-03-09T05:19:18.918Z,27.09
2024-03-09T05:20:18.990Z,27.02
2024-03-09T05:21:19.044Z,27.07
2024-03-09T05:22:19.100Z,27.03
2024-03-09T05:23:19.210Z,27.10
2024-03-09T05:24:19.232Z,27.07
2024-03-09T05:25:19.258Z,27.04
2024-03-09T05:26:19.348Z,27.01
2024-03-09T05:27:19.381Z,27.02
2024-03-09T05:28:19.458Z,27.02
2024-03-09T05:29:19.501Z,27.01
2024-03-09T05:30:19.627Z,27.01
2024-03-09T05:31:19.616Z,26.99
2024-03-09T05:32:19.666Z,27.04
2024-03-09T05:33:19.798Z,27.08
2024-03-09T05:34:19.800Z,27.02
2024-03-09T05:35:19.848Z,27.06
2024-03-09T05:36:19.915Z,27.05
2024-03-09T05:37:19.963Z,27.07
2024-03-09T05:38:20.056Z,27.01
2024-03-09T05:39:20.052Z,27.06
2024-03-09T05:40:20.161Z,27.05
2024-03-09T05:41:20.185Z,27.01
2024-03-09T05:42:20.210Z,27.08
2024-03-09T05:43:20.277Z,27.07
2024-03-09T05:44:20.325Z,27.07
2024-03-09T05:45:20.379Z,27.03
2024-03-09T05:46:20.418Z,27.07
2024-03-09T05:47:20.501Z,27.08
2024-03-09T05:48:20.641Z,27.09
2024-03-09T05:49:20.614Z,27.05
2024-03-09T05:50:20.656Z,27.02
2024-03-09T05:51:20.749Z,27.04
2024-03-09T05:52:20.788Z,27.04
2024-03-09T05:53:20.921Z,26.99
2024-03-09T05:54:20.884Z,26.98
2024-03-09T05:55:20.979Z,27.09
2024-03-09T05:56:21.081Z,27.07
2024-03-09T05:57:21.041Z,27.03
2024-03-09T05:58:21.141Z,27.00
2024-03-09T05:59:21.163Z,27.03
2024-03-09T06:00:21.266Z,27.01
2024-03-09T06:01:21.328Z,26.99
2024-03-09T06:02:21.416Z,26.99
2024-03-09T06:03:21.420Z,27.01
2024-03-09T06:04:21.461Z,27.03
2024-03-09T06:05:21.531Z,27.03
2024-03-09T06:06:21.597Z,27.02
2024-03-09T06:07:21.658Z,27.02
2024-03-09T06:08:21.738Z,27.02
2024-03-09T06:09:21.776Z,27.05
2024-03-09T06:10:21.823Z,27.01
2024-03-09T06:11:21.931Z,27.01
2024-03-09T06:12:22.086Z,27.00
2024-03-09T06:13:21.980Z,27.07
2024-03-09T06:14:22.014Z,27.03
2024-03-09T06:15:22.089Z,27.00
2024-03-09T06:16:22.124Z,27.02
2024-03-09T06:17:22.155Z,27.03
2024-03-09T06:18:22.222Z,26.98
2024-03-09T06:19:22.307Z,27.01
2024-03-09T06:20:22.348Z,27.04
2024-03-09T06:21:22.436Z,27.04
2024-03-09T06:22:22.474Z,27.01
2024-03-09T06:23:22.521Z,27.00
2024-03-09T06:24:22.604Z,26.98
2024-03-09T06:25:22.642Z,26.99
2024-03-09T06:26:22.674Z,26.99
2024-03-09T06:27:22.701Z,26.96
2024-03-09T06:28:22.818Z,26.98
2024-03-09T06:29:22.951Z,27.00
2024-03-09T06:30:25.619Z,26.98
2024-03-09T06:31:22.880Z,26.95
2024-03-09T06:32:22.872Z,26.99
2024-03-09T06:33:22.925Z,26.95
2024-03-09T06:34:22.912Z,26.99
2024-03-09T06:35:22.897Z,26.99
2024-03-09T06:36:22.914Z,27.01
2024-03-09T06:37:22.901Z,26.98
2024-03-09T06:38:22.917Z,26.99
2024-03-09T06:39:22.938Z,27.00
2024-03-09T06:40:22.915Z,26.99
2024-03-09T06:41:24.737Z,27.00
2024-03-09T06:42:22.913Z,26.98
2024-03-09T06:43:22.906Z,27.00
2024-03-09T06:44:22.976Z,26.96
2024-03-09T06:45:22.931Z,26.96
2024-03-09T06:46:22.899Z,26.96
2024-03-09T06:47:22.944Z,26.94
2024-03-09T06:48:22.918Z,26.90
2024-03-09T06:49:22.955Z,26.89
2024-03-09T06:50:23.072Z,26.86
2024-03-09T06:51:22.923Z,26.82
2024-03-09T06:52:22.925Z,26.84
2024-03-09T06:53:22.992Z,26.82
2024-03-09T06:54:22.954Z,26.73
2024-03-09T06:55:23.013Z,26.72
2024-03-09T06:56:23.028Z,26.65
2024-03-09T06:57:22.928Z,26.65
2024-03-09T06:58:22.957Z,26.60
2024-03-09T06:59:22.922Z,26.52
2024-03-09T07:00:22.987Z,26.47
2024-03-09T07:01:23.000Z,26.45
2024-03-09T07:02:23.006Z,26.41
2024-03-09T07:03:22.958Z,26.33
2024-03-09T07:04:22.924Z,26.26
2024-03-09T07:05:23.034Z,26.20
2024-03-09T07:06:22.972Z,26.17
2024-03-09T07:07:22.943Z,26.08
2024-03-09T07:08:23.081Z,26.06
2024-03-09T07:09:22.942Z,25.99
2024-03-09T07:10:22.941Z,25.92
2024-03-09T07:11:23.018Z,25.85
2024-03-09T07:12:22.968Z,25.84
2024-03-09T07:13:22.965Z,25.79
2024-03-09T07:14:22.957Z,25.72
2024-03-09T07:15:22.965Z,25.61
2024-03-09T07:16:22.998Z,25.54
2024-03-09T07:17:22.955Z,25.50
2024-03-09T07:18:23.018Z,25.37
2024-03-09T07:19:22.970Z,25.32
2024-03-09T07:20:23.070Z,25.24
2024-03-09T07:21:22.978Z,25.16
2024-03-09T07:22:23.036Z,25.07
2024-03-09T07:23:23.064Z,25.06
2024-03-09T07:24:22.993Z,24.96
2024-03-09T07:25:22.992Z,24.90
2024-03-09T07:26:23.048Z,24.79
2024-03-09T07:27:22.981Z,24.81
2024-03-09T07:28:23.019Z,24.74
2024-03-09T07:29:23.046Z,24.63
2024-03-09T07:30:23.040Z,24.60
2024-03-09T07:31:23.009Z,24.55
2024-03-09T07:32:23.138Z,24.42
2024-03-09T07:33:23.067Z,24.37
2024-03-09T07:34:22.992Z,24.25
2024-03-09T07:35:23.018Z,24.12
2024-03-09T07:36:23.003Z,24.00
2024-03-09T07:37:25.202Z,23.85
2024-03-09T07:38:23.139Z,23.64
2024-03-09T07:39:23.132Z,23.44
2024-03-09T07:40:23.210Z,23.21
2024-03-09T07:41:23.177Z,23.04
2024-03-09T07:42:23.179Z,22.86
2024-03-09T07:43:23.176Z,22.67
2024-03-09T07:44:23.259Z,22.50
2024-03-09T07:45:23.241Z,22.30
2024-03-09T07:46:23.274Z,22.11
2024-03-09T07:47:23.392Z,21.93
2024-03-09T07:48:23.438Z,21.80
2024-03-09T07:49:23.513Z,21.70
2024-03-09T07:50:23.887Z,21.50
2024-03-09T07:51:23.638Z,21.55
2024-03-09T07:52:23.628Z,21.84
2024-03-09T07:53:23.654Z,22.22
2024-03-09T07:54:23.739Z,22.62
2024-03-09T07:55:23.792Z,22.95
2024-03-09T07:56:23.937Z,23.16
2024-03-09T07:57:23.854Z,23.37
2024-03-09T07:58:26.785Z,23.55
2024-03-09T07:59:23.900Z,23.71
2024-03-09T08:00:23.895Z,23.80
2024-03-09T08:01:23.959Z,23.91
2024-03-09T08:02:23.973Z,23.99
2024-03-09T08:03:24.166Z,24.07
2024-03-09T08:04:23.967Z,24.10
2024-03-09T08:05:23.923Z,24.13
2024-03-09T08:06:23.918Z,24.19
2024-03-09T08:07:23.935Z,24.25
2024-03-09T08:08:24.002Z,24.32
2024-03-09T08:09:23.948Z,24.33
2024-03-09T08:10:23.948Z,24.43
2024-03-09T08:11:24.106Z,24.51
2024-03-09T08:12:23.957Z,24.53
2024-03-09T08:13:23.929Z,24.58
2024-03-09T08:14:23.952Z,24.69
2024-03-09T08:15:23.964Z,24.73
2024-03-09T08:16:23.944Z,24.82
2024-03-09T08:17:23.945Z,24.84
2024-03-09T08:18:24.300Z,24.89
2024-03-09T08:19:23.980Z,24.84
2024-03-09T08:20:24.809Z,24.86
2024-03-09T08:21:23.983Z,24.90
2024-03-09T08:22:23.946Z,24.90
2024-03-09T08:23:23.991Z,24.97
2024-03-09T08:24:23.965Z,25.01
2024-03-09T08:25:24.011Z,25.02
2024-03-09T08:26:24.069Z,25.04
2024-03-09T08:27:23.967Z,25.06
2024-03-09T08:28:24.054Z,25.13
2024-03-09T08:29:24.002Z,25.11
2024-03-09T08:30:23.957Z,25.20
2024-03-09T08:31:23.986Z,25.20
2024-03-09T08:32:23.947Z,25.24
2024-03-09T08:33:24.035Z,25.34
2024-03-09T08:34:23.958Z,25.33
2024-03-09T08:35:24.026Z,25.38
2024-03-09T08:36:23.983Z,25.44
2024-03-09T08:37:23.978Z,25.44
2024-03-09T08:38:24.013Z,25.51
2024-03-09T08:39:24.005Z,25.52
2024-03-09T08:40:24.042Z,25.56
2024-03-09T08:41:24.135Z,25.57
2024-03-09T08:42:24.180Z,25.60
2024-03-09T08:43:24.214Z,25.63
2024-03-09T08:44:24.254Z,25.61
2024-03-09T08:45:24.358Z,25.66
2024-03-09T08:46:24.345Z,25.68
2024-03-09T08:47:24.424Z,25.70
2024-03-09T08:48:24.449Z,25.73
2024-03-09T08:49:24.511Z,25.70
2024-03-09T08:50:24.674Z,25.69
2024-03-09T08:51:24.643Z,25.75
2024-03-09T08:52:24.941Z,25.73
2024-03-09T08:53:24.763Z,25.77
2024-03-09T08:54:24.708Z,25.77
2024-03-09T08:55:25.005Z,25.78
2024-03-09T08:56:24.835Z,25.81
2024-03-09T08:57:24.868Z,25.81
2024-03-09T08:58:24.945Z,25.83
2024-03-09T08:59:25.002Z,25.89
2024-03-09T09:00:25.000Z,25.88
2024-03-09T09:01:25.139Z,25.89
2024-03-09T09:02:25.145Z,25.79
2024-03-09T09:03:25.141Z,25.79
2024-03-09T09:04:25.202Z,25.80
2024-03-09T09:05:25.217Z,25.82
2024-03-09T09:06:25.261Z,25.78
2024-03-09T09:07:25.289Z,25.74
2024-03-09T09:08:25.388Z,25.76
2024-03-09T09:09:25.340Z,25.79
2024-03-09T09:10:25.392Z,25.76
2024-03-09T09:11:25.459Z,25.76
2024-03-09T09:12:25.461Z,25.80
2024-03-09T09:13:25.463Z,25.82
2024-03-09T09:14:25.453Z,25.82
2024-03-09T09:15:25.475Z,25.75
2024-03-09T09:16:25.627Z,25.84
2024-03-09T09:17:25.557Z,25.81
2024-03-09T09:18:25.528Z,25.85
2024-03-09T09:19:25.548Z,25.84
2024-03-09T09:20:25.985Z,25.87
2024-03-09T09:21:25.571Z,25.90
2024-03-09T09:22:25.569Z,25.89
2024-03-09T09:23:25.607Z,25.93
2024-03-09T09:24:25.594Z,25.94
2024-03-09T09:25:29.417Z,25.94
2024-03-09T09:26:26.724Z,25.92
2024-03-09T09:27:25.605Z,25.99
2024-03-09T09:28:25.597Z,25.98
2024-03-09T09:29:25.598Z,26.00
2024-03-09T09:30:25.603Z,26.00
2024-03-09T09:31:25.575Z,26.03
2024-03-09T09:32:25.713Z,26.04
2024-03-09T09:33:25.648Z,26.05
2024-03-09T09:34:25.620Z,26.06
2024-03-09T09:35:25.670Z,26.10
2024-03-09T09:36:25.580Z,26.06
2024-03-09T09:37:25.581Z,26.07
2024-03-09T09:38:25.639Z,26.11
2024-03-09T09:39:25.663Z,26.07
2024-03-09T09:40:25.653Z,26.10
2024-03-09T09:41:25.608Z,26.08
2024-03-09T09:42:25.596Z,26.09
2024-03-09T09:43:25.663Z,26.11
2024-03-09T09:44:25.620Z,26.12
2024-03-09T09:45:25.678Z,26.12
2024-03-09T09:46:25.608Z,26.13
2024-03-09T09:47:25.652Z,26.12
2024-03-09T09:48:25.629Z,26.17
2024-03-09T09:49:25.616Z,26.12
2024-03-09T09:50:25.741Z,26.13
2024-03-09T09:51:25.680Z,26.19
2024-03-09T09:52:25.696Z,26.18
2024-03-09T09:53:25.751Z,26.18
2024-03-09T09:54:25.799Z,26.16
2024-03-09T09:55:25.935Z,26.15
2024-03-09T09:56:25.956Z,26.20
2024-03-09T09:57:26.043Z,26.13
2024-03-09T09:58:26.061Z,26.22
2024-03-09T09:59:26.187Z,26.22
2024-03-09T10:00:26.173Z,26.24
2024-03-09T10:01:26.262Z,26.25
2024-03-09T10:02:26.473Z,26.26
2024-03-09T10:03:26.387Z,26.24
2024-03-09T10:04:26.460Z,26.29
2024-03-09T10:05:26.628Z,26.30
2024-03-09T10:06:26.594Z,26.29
2024-03-09T10:07:26.643Z,26.34
2024-03-09T10:08:26.721Z,26.38
2024-03-09T10:09:26.825Z,26.37
2024-03-09T10:10:26.811Z,26.39
2024-03-09T10:11:26.969Z,26.39
2024-03-09T10:12:26.990Z,26.39
2024-03-09T10:13:27.040Z,26.41
2024-03-09T10:14:27.146Z,26.44
2024-03-09T10:15:27.200Z,26.44
2024-03-09T10:16:27.289Z,26.44
2024-03-09T10:17:27.388Z,26.41
2024-03-09T10:18:27.403Z,26.43
2024-03-09T10:19:27.494Z,26.47
2024-03-09T10:20:27.546Z,26.50
2024-03-09T10:21:27.631Z,26.46
2024-03-09T10:22:27.700Z,26.50
2024-03-09T10:23:27.861Z,26.45
2024-03-09T10:24:27.823Z,26.51
2024-03-09T10:25:27.927Z,26.51
2024-03-09T10:26:27.963Z,26.48
2024-03-09T10:27:29.712Z,26.46
2024-03-09T10:28:28.140Z,26.49
2024-03-09T10:29:28.178Z,26.48
2024-03-09T10:30:28.306Z,26.48
2024-03-09T10:31:28.302Z,26.49
2024-03-09T10:32:28.400Z,26.49
2024-03-09T10:33:28.501Z,26.48
2024-03-09T10:34:28.519Z,26.46
2024-03-09T10:35:28.786Z,26.49
2024-03-09T10:36:28.731Z,26.50
2024-03-09T10:37:28.739Z,26.50
2024-03-09T10:38:28.774Z,26.50
2024-03-09T10:39:28.825Z,26.49
2024-03-09T10:40:28.925Z,26.54
2024-03-09T10:41:28.983Z,26.51
2024-03-09T10:42:29.025Z,26.51
2024-03-09T10:43:29.092Z,26.52
2024-03-09T10:44:29.174Z,26.48
2024-03-09T10:45:29.259Z,26.48
2024-03-09T10:46:29.277Z,26.49
2024-03-09T10:47:29.332Z,26.44
2024-03-09T10:48:29.368Z,26.50
2024-03-09T10:49:29.426Z,26.53
2024-03-09T10:50:29.501Z,26.47
2024-03-09T10:51:29.532Z,26.51
2024-03-09T10:52:29.620Z,26.51
2024-03-09T10:53:29.634Z,26.59
2024-03-09T10:54:29.719Z,26.60
2024-03-09T10:55:29.757Z,26.57
2024-03-09T10:56:29.838Z,26.55
2024-03-09T10:57:29.889Z,26.57
2024-03-09T10:58:29.937Z,26.62
2024-03-09T10:59:30.004Z,26.67
2024-03-09T11:00:30.100Z,26.67
2024-03-09T11:01:30.167Z,26.66
2024-03-09T11:02:30.124Z,26.67
2024-03-09T11:03:30.155Z,26.72
2024-03-09T11:04:30.230Z,26.64
2024-03-09T11:05:30.277Z,26.68
2024-03-09T11:06:30.335Z,26.66
2024-03-09T11:07:30.388Z,26.73
2024-03-09T11:08:30.423Z,26.73
2024-03-09T11:09:30.678Z,26.71
2024-03-09T11:10:30.540Z,26.74
2024-03-09T11:11:30.682Z,26.71
2024-03-09T11:12:30.628Z,26.72
2024-03-09T11:13:30.686Z,26.75
2024-03-09T11:14:30.735Z,26.75
2024-03-09T11:15:30.789Z,26.77
2024-03-09T11:16:30.900Z,26.75
2024-03-09T11:17:30.926Z,26.81
2024-03-09T11:18:30.948Z,26.75
2024-03-09T11:19:30.994Z,26.76
2024-03-09T11:20:31.031Z,26.77
2024-03-09T11:21:31.448Z,26.74
2024-03-09T11:22:31.049Z,26.74
2024-03-09T11:23:31.048Z,26.79
2024-03-09T11:24:31.230Z,26.79
2024-03-09T11:25:31.039Z,26.75
2024-03-09T11:26:31.047Z,26.81
2024-03-09T11:27:31.024Z,26.81
2024-03-09T11:28:31.078Z,26.83
2024-03-09T11:29:31.412Z,26.82
2024-03-09T11:30:31.092Z,26.84
2024-03-09T11:31:31.077Z,26.77
2024-03-09T11:32:31.160Z,26.79
2024-03-09T11:33:31.053Z,26.84
2024-03-09T11:34:31.040Z,26.82
2024-03-09T11:35:31.066Z,26.80
2024-03-09T11:36:31.057Z,26.82
2024-03-09T11:37:31.086Z,26.78
2024-03-09T11:38:31.110Z,26.81
2024-03-09T11:39:31.357Z,26.81
2024-03-09T11:40:31.073Z,26.80
2024-03-09T11:41:31.096Z,26.80
2024-03-09T11:42:31.070Z,26.82
2024-03-09T11:43:31.072Z,26.81
2024-03-09T11:44:31.069Z,26.81
2024-03-09T11:45:31.088Z,26.81
2024-03-09T11:46:31.099Z,26.80
2024-03-09T11:47:31.143Z,26.81
2024-03-09T11:48:31.193Z,26.83
2024-03-09T11:49:31.119Z,26.82
2024-03-09T11:50:31.153Z,26.86
2024-03-09T11:51:31.112Z,26.83
2024-03-09T11:52:31.112Z,26.83
2024-03-09T11:53:31.130Z,26.82
2024-03-09T11:54:31.136Z,26.81
2024-03-09T11:55:31.087Z,26.83
2024-03-09T11:56:31.089Z,26.84
2024-03-09T11:57:31.110Z,26.85
2024-03-09T11:58:31.138Z,26.84
2024-03-09T11:59:31.204Z,26.82
2024-03-09T12:00:31.130Z,26.83
2024-03-09T12:01:31.128Z,26.88
2024-03-09T12:02:31.212Z,26.84
2024-03-09T12:03:31.138Z,26.84
2024-03-09T12:04:31.157Z,26.87
2024-03-09T12:05:31.119Z,26.85
2024-03-09T12:06:31.120Z,26.88
2024-03-09T12:07:31.197Z,26.86
2024-03-09T12:08:31.173Z,26.85
2024-03-09T12:09:31.246Z,26.89
2024-03-09T12:10:31.255Z,26.85
2024-03-09T12:11:31.369Z,26.89
2024-03-09T12:12:31.265Z,26.87
2024-03-09T12:13:31.311Z,26.87
2024-03-09T12:14:31.341Z,26.84
2024-03-09T12:15:31.336Z,26.84
2024-03-09T12:16:31.363Z,26.88
2024-03-09T12:17:31.405Z,26.86
2024-03-09T12:18:31.385Z,26.82
2024-03-09T12:19:31.414Z,26.81
2024-03-09T12:20:33.030Z,26.80
2024-03-09T12:21:31.432Z,26.83
2024-03-09T12:22:31.453Z,26.87
2024-03-09T12:23:31.408Z,26.82
2024-03-09T12:24:31.440Z,26.83
2024-03-09T12:25:31.419Z,26.81
2024-03-09T12:26:34.015Z,26.83
2024-03-09T12:27:31.437Z,26.85
2024-03-09T12:28:31.448Z,26.84
2024-03-09T12:29:31.434Z,26.87
2024-03-09T12:30:31.444Z,26.85
2024-03-09T12:31:31.459Z,26.84
2024-03-09T12:32:34.689Z,26.86
2024-03-09T12:33:31.423Z,26.87
2024-03-09T12:34:31.485Z,26.81
2024-03-09T12:35:31.466Z,26.85
2024-03-09T12:36:31.471Z,26.89
2024-03-09T12:37:31.472Z,26.87
2024-03-09T12:38:33.991Z,26.90
2024-03-09T12:39:31.443Z,26.85
2024-03-09T12:40:31.464Z,26.82
2024-03-09T12:41:31.474Z,26.82
2024-03-09T12:42:31.462Z,26.85
2024-03-09T12:43:31.454Z,26.86
2024-03-09T12:44:32.155Z,26.85
2024-03-09T12:45:31.468Z,26.87
2024-03-09T12:46:31.466Z,26.88
2024-03-09T12:47:31.571Z,26.87
2024-03-09T12:48:31.438Z,26.87
2024-03-09T12:49:31.469Z,26.86
2024-03-09T12:50:31.479Z,26.89
2024-03-09T12:51:31.462Z,26.88
2024-03-09T12:52:31.487Z,26.88
2024-03-09T12:53:31.500Z,26.89
2024-03-09T12:54:31.494Z,26.94